ASX668 LSZH-LIRA
Flight info
| Callsign | ASX668 |
|---|---|
| Flight time | 1h 3m |
| Altitude | 39000 |
| Route | VEBIT T53 GERSA DCT SOSON DCT ODINA DCT OLNUK DCT EKDIR DCT KUGIX DCT AMTEL DCT GITOD |
| Aircraft | C700/M-SBDGRWXY/LB2 |
Departure
| Time | 2026-04-30 11:18 |
|---|---|
| Airport | Zürich Airport (LSZH) |
Arrival
| Time | 2026-04-30 12:21 |
|---|---|
| Airport | Ciampino–G. B. Pastine International Airport (LIRA) |
| Time | Latitude | Longitude | Altitude | Speed | Heading |
|---|---|---|---|---|---|
| 2026-04-30 11:10 | 47.45511 | 8.56963 | 1393 ft | 0 kts | 5° |
| 2026-04-30 11:15 | 47.45520 | 8.56972 | 1403 ft | 7 kts | 32° |
| 2026-04-30 11:16 | 47.45579 | 8.57014 | 1417 ft | 0 kts | 4° |
| 2026-04-30 11:17 | 47.45601 | 8.57016 | 1419 ft | 12 kts | 4° |
| 2026-04-30 11:17 | 47.45662 | 8.56922 | 1419 ft | 28 kts | 277° |
| 2026-04-30 11:17 | 47.45697 | 8.56502 | 1416 ft | 97 kts | 275° |
| 2026-04-30 11:17 | 47.45803 | 8.55040 | 1413 ft | 185 kts | 278° |
| 2026-04-30 11:18 | 47.45958 | 8.52946 | 2097 ft | 219 kts | 278° |
| 2026-04-30 11:18 | 47.45599 | 8.47791 | 3991 ft | 220 kts | 242° |
| 2026-04-30 11:18 | 47.45008 | 8.46465 | 4529 ft | 240 kts | 231° |
| 2026-04-30 11:19 | 47.43940 | 8.44420 | 5330 ft | 263 kts | 230° |
| 2026-04-30 11:19 | 47.42800 | 8.42189 | 6129 ft | 269 kts | 231° |
| 2026-04-30 11:19 | 47.41647 | 8.39888 | 6916 ft | 281 kts | 232° |
| 2026-04-30 11:19 | 47.40481 | 8.37577 | 7678 ft | 289 kts | 232° |
| 2026-04-30 11:20 | 47.39291 | 8.35241 | 8439 ft | 288 kts | 232° |
| 2026-04-30 11:20 | 47.38266 | 8.32690 | 9223 ft | 287 kts | 243° |
| 2026-04-30 11:20 | 47.37345 | 8.29992 | 10014 ft | 296 kts | 243° |
| 2026-04-30 11:20 | 47.36397 | 8.27344 | 10741 ft | 300 kts | 242° |
| 2026-04-30 11:21 | 47.35416 | 8.24637 | 11478 ft | 299 kts | 243° |
| 2026-04-30 11:21 | 47.34432 | 8.21871 | 12236 ft | 305 kts | 243° |
| 2026-04-30 11:21 | 47.33451 | 8.19089 | 12999 ft | 308 kts | 243° |
| 2026-04-30 11:21 | 47.32454 | 8.16277 | 13795 ft | 311 kts | 243° |
| 2026-04-30 11:22 | 47.31340 | 8.13526 | 14513 ft | 315 kts | 231° |
| 2026-04-30 11:22 | 47.29575 | 8.11609 | 15102 ft | 323 kts | 203° |
| 2026-04-30 11:22 | 47.27376 | 8.11129 | 15578 ft | 324 kts | 174° |
| 2026-04-30 11:22 | 47.25253 | 8.12247 | 16069 ft | 330 kts | 146° |
| 2026-04-30 11:23 | 47.23707 | 8.14701 | 16574 ft | 329 kts | 117° |
| 2026-04-30 11:23 | 47.23111 | 8.17915 | 17082 ft | 328 kts | 89° |
| 2026-04-30 11:23 | 47.24282 | 8.24340 | 18072 ft | 342 kts | 68° |
| 2026-04-30 11:24 | 47.25049 | 8.27862 | 18368 ft | 378 kts | 73° |
| 2026-04-30 11:24 | 47.25597 | 8.31775 | 18646 ft | 395 kts | 81° |
| 2026-04-30 11:24 | 47.25649 | 8.35827 | 18955 ft | 403 kts | 96° |
| 2026-04-30 11:25 | 47.23547 | 8.43525 | 19739 ft | 411 kts | 123° |
| 2026-04-30 11:25 | 47.21683 | 8.46756 | 20132 ft | 417 kts | 136° |
| 2026-04-30 11:25 | 47.16712 | 8.51042 | 20921 ft | 420 kts | 163° |
| 2026-04-30 11:26 | 47.10909 | 8.52207 | 21744 ft | 425 kts | 176° |
| 2026-04-30 11:26 | 47.07946 | 8.52598 | 22170 ft | 429 kts | 175° |
| 2026-04-30 11:26 | 47.05010 | 8.53062 | 22586 ft | 430 kts | 175° |
| 2026-04-30 11:27 | 47.02027 | 8.53516 | 23020 ft | 433 kts | 175° |
| 2026-04-30 11:27 | 46.99007 | 8.53926 | 23450 ft | 439 kts | 176° |
| 2026-04-30 11:27 | 46.95973 | 8.54345 | 23892 ft | 438 kts | 175° |
| 2026-04-30 11:27 | 46.92918 | 8.54798 | 24311 ft | 443 kts | 175° |
| 2026-04-30 11:28 | 46.86744 | 8.55691 | 25163 ft | 447 kts | 175° |
| 2026-04-30 11:28 | 46.83643 | 8.56126 | 25590 ft | 449 kts | 175° |
| 2026-04-30 11:28 | 46.80520 | 8.56580 | 26037 ft | 450 kts | 175° |
| 2026-04-30 11:29 | 46.77399 | 8.57034 | 26478 ft | 453 kts | 175° |
| 2026-04-30 11:29 | 46.74288 | 8.57476 | 26934 ft | 457 kts | 175° |
| 2026-04-30 11:29 | 46.67912 | 8.58382 | 27875 ft | 463 kts | 175° |
| 2026-04-30 11:30 | 46.61458 | 8.59305 | 28848 ft | 470 kts | 175° |
| 2026-04-30 11:30 | 46.58203 | 8.59766 | 29350 ft | 469 kts | 175° |
| 2026-04-30 11:30 | 46.54934 | 8.60229 | 29776 ft | 475 kts | 175° |
| 2026-04-30 11:31 | 46.51624 | 8.60700 | 30210 ft | 480 kts | 175° |
| 2026-04-30 11:31 | 46.48313 | 8.61170 | 30589 ft | 477 kts | 175° |
| 2026-04-30 11:31 | 46.44982 | 8.61640 | 30965 ft | 482 kts | 175° |
| 2026-04-30 11:31 | 46.41632 | 8.62113 | 31338 ft | 486 kts | 175° |
| 2026-04-30 11:32 | 46.38271 | 8.62588 | 31730 ft | 482 kts | 175° |
| 2026-04-30 11:32 | 46.34943 | 8.63058 | 32073 ft | 482 kts | 175° |
| 2026-04-30 11:32 | 46.31628 | 8.63523 | 32329 ft | 482 kts | 175° |
| 2026-04-30 11:33 | 46.24978 | 8.64458 | 32843 ft | 478 kts | 175° |
| 2026-04-30 11:33 | 46.21663 | 8.64923 | 33100 ft | 480 kts | 175° |
| 2026-04-30 11:33 | 46.18363 | 8.65385 | 33374 ft | 483 kts | 175° |
| 2026-04-30 11:33 | 46.15038 | 8.65921 | 33636 ft | 478 kts | 171° |
| 2026-04-30 11:34 | 46.11821 | 8.67114 | 33898 ft | 481 kts | 161° |
| 2026-04-30 11:34 | 46.08746 | 8.69035 | 34170 ft | 482 kts | 152° |
| 2026-04-30 11:34 | 46.05918 | 8.71631 | 34424 ft | 480 kts | 143° |
| 2026-04-30 11:34 | 46.03305 | 8.74607 | 34660 ft | 480 kts | 141° |
| 2026-04-30 11:35 | 46.00681 | 8.77594 | 34903 ft | 482 kts | 142° |
| 2026-04-30 11:35 | 45.98036 | 8.80573 | 35145 ft | 482 kts | 142° |
| 2026-04-30 11:35 | 45.95398 | 8.83550 | 35389 ft | 482 kts | 142° |
| 2026-04-30 11:35 | 45.92769 | 8.86532 | 35631 ft | 481 kts | 142° |
| 2026-04-30 11:36 | 45.90146 | 8.89501 | 35881 ft | 480 kts | 142° |
| 2026-04-30 11:36 | 45.87511 | 8.92464 | 36122 ft | 482 kts | 142° |
| 2026-04-30 11:36 | 45.84859 | 8.95444 | 36369 ft | 484 kts | 142° |
| 2026-04-30 11:36 | 45.82221 | 8.98414 | 36619 ft | 482 kts | 142° |
| 2026-04-30 11:37 | 45.79587 | 9.01376 | 36872 ft | 481 kts | 142° |
| 2026-04-30 11:37 | 45.77062 | 9.04207 | 37117 ft | 483 kts | 142° |
| 2026-04-30 11:37 | 45.74416 | 9.07169 | 37370 ft | 483 kts | 142° |
| 2026-04-30 11:37 | 45.71763 | 9.10138 | 37633 ft | 484 kts | 142° |
| 2026-04-30 11:38 | 45.69116 | 9.13098 | 37899 ft | 484 kts | 142° |
| 2026-04-30 11:38 | 45.66460 | 9.16063 | 38169 ft | 483 kts | 142° |
| 2026-04-30 11:38 | 45.63809 | 9.19017 | 38458 ft | 481 kts | 143° |
| 2026-04-30 11:38 | 45.61169 | 9.21956 | 38718 ft | 481 kts | 143° |
| 2026-04-30 11:39 | 45.58531 | 9.24891 | 38988 ft | 483 kts | 143° |
| 2026-04-30 11:39 | 45.55872 | 9.27844 | 39209 ft | 484 kts | 143° |
| 2026-04-30 11:39 | 45.50489 | 9.33811 | 39284 ft | 496 kts | 143° |
| 2026-04-30 11:40 | 45.45048 | 9.39830 | 39289 ft | 492 kts | 143° |
| 2026-04-30 11:40 | 45.39668 | 9.45762 | 39285 ft | 493 kts | 143° |
| 2026-04-30 11:41 | 45.34239 | 9.51738 | 39285 ft | 495 kts | 143° |
| 2026-04-30 11:41 | 45.28785 | 9.57724 | 39284 ft | 496 kts | 143° |
| 2026-04-30 11:42 | 45.23312 | 9.63717 | 39277 ft | 495 kts | 143° |
| 2026-04-30 11:42 | 45.17863 | 9.69669 | 39272 ft | 494 kts | 143° |
| 2026-04-30 11:43 | 45.12421 | 9.75596 | 39265 ft | 492 kts | 143° |
| 2026-04-30 11:43 | 45.06976 | 9.81514 | 39262 ft | 494 kts | 143° |
| 2026-04-30 11:44 | 45.01494 | 9.87457 | 39260 ft | 497 kts | 144° |
| 2026-04-30 11:44 | 44.95991 | 9.93408 | 39265 ft | 497 kts | 144° |
| 2026-04-30 11:45 | 44.90546 | 9.99282 | 39265 ft | 494 kts | 144° |
| 2026-04-30 11:45 | 44.85072 | 10.05173 | 39280 ft | 495 kts | 144° |
| 2026-04-30 11:46 | 44.79580 | 10.11069 | 39284 ft | 498 kts | 144° |
| 2026-04-30 11:46 | 44.74061 | 10.16978 | 39287 ft | 499 kts | 144° |
| 2026-04-30 11:47 | 44.68641 | 10.22768 | 39287 ft | 500 kts | 144° |
| 2026-04-30 11:47 | 44.63096 | 10.28677 | 39281 ft | 500 kts | 144° |
| 2026-04-30 11:48 | 44.57560 | 10.34562 | 39272 ft | 499 kts | 144° |
| 2026-04-30 11:48 | 44.52029 | 10.40426 | 39268 ft | 498 kts | 143° |
| 2026-04-30 11:49 | 44.46423 | 10.46356 | 39259 ft | 508 kts | 143° |
| 2026-04-30 11:49 | 44.40849 | 10.52240 | 39258 ft | 503 kts | 143° |
| 2026-04-30 11:50 | 44.35097 | 10.57837 | 39251 ft | 505 kts | 148° |
| 2026-04-30 11:50 | 44.29163 | 10.63159 | 39246 ft | 507 kts | 148° |
| 2026-04-30 11:51 | 44.23258 | 10.68506 | 39240 ft | 507 kts | 148° |
| 2026-04-30 11:51 | 44.17424 | 10.74065 | 39234 ft | 508 kts | 145° |
| 2026-04-30 11:52 | 44.11703 | 10.79886 | 39231 ft | 510 kts | 145° |
| 2026-04-30 11:52 | 44.05953 | 10.85658 | 39228 ft | 509 kts | 145° |
| 2026-04-30 11:53 | 44.00240 | 10.91424 | 39222 ft | 508 kts | 145° |
| 2026-04-30 11:53 | 43.94507 | 10.97165 | 39212 ft | 507 kts | 145° |
| 2026-04-30 11:54 | 43.88770 | 11.02916 | 39212 ft | 510 kts | 146° |
| 2026-04-30 11:54 | 43.83031 | 11.08643 | 39215 ft | 513 kts | 146° |
| 2026-04-30 11:55 | 43.77241 | 11.14413 | 39215 ft | 512 kts | 146° |
| 2026-04-30 11:55 | 43.71461 | 11.20158 | 39218 ft | 510 kts | 146° |
| 2026-04-30 11:56 | 43.65698 | 11.25871 | 39213 ft | 510 kts | 146° |
| 2026-04-30 11:56 | 43.59913 | 11.31592 | 39209 ft | 513 kts | 146° |
| 2026-04-30 11:57 | 43.54010 | 11.37145 | 39200 ft | 512 kts | 154° |
| 2026-04-30 11:57 | 43.47779 | 11.41754 | 39198 ft | 511 kts | 154° |
| 2026-04-30 11:58 | 43.44657 | 11.44101 | 38938 ft | 513 kts | 154° |
| 2026-04-30 11:58 | 43.41554 | 11.46421 | 38231 ft | 501 kts | 154° |
| 2026-04-30 11:58 | 43.38513 | 11.48669 | 37586 ft | 494 kts | 155° |
| 2026-04-30 11:58 | 43.35464 | 11.50915 | 36931 ft | 502 kts | 155° |
| 2026-04-30 11:59 | 43.32385 | 11.53198 | 36262 ft | 503 kts | 155° |
| 2026-04-30 11:59 | 43.29312 | 11.55486 | 35605 ft | 502 kts | 155° |
| 2026-04-30 11:59 | 43.26231 | 11.57766 | 34939 ft | 503 kts | 155° |
| 2026-04-30 11:59 | 43.23267 | 11.60344 | 34273 ft | 508 kts | 146° |
| 2026-04-30 12:00 | 43.20594 | 11.63532 | 33561 ft | 513 kts | 137° |
| 2026-04-30 12:00 | 43.18236 | 11.67249 | 32883 ft | 519 kts | 130° |
| 2026-04-30 12:00 | 43.15963 | 11.71122 | 32188 ft | 522 kts | 130° |
| 2026-04-30 12:00 | 43.13665 | 11.74990 | 31503 ft | 524 kts | 131° |
| 2026-04-30 12:01 | 43.11351 | 11.78855 | 30813 ft | 525 kts | 131° |
| 2026-04-30 12:01 | 43.09045 | 11.82730 | 30080 ft | 526 kts | 130° |
| 2026-04-30 12:01 | 43.06761 | 11.86587 | 29370 ft | 516 kts | 130° |
| 2026-04-30 12:01 | 43.04515 | 11.90360 | 28696 ft | 508 kts | 131° |
| 2026-04-30 12:02 | 43.02285 | 11.94077 | 28033 ft | 503 kts | 131° |
| 2026-04-30 12:02 | 43.00085 | 11.97745 | 27377 ft | 498 kts | 130° |
| 2026-04-30 12:02 | 42.97906 | 12.01395 | 26721 ft | 491 kts | 130° |
| 2026-04-30 12:02 | 42.95763 | 12.04977 | 26081 ft | 485 kts | 130° |
| 2026-04-30 12:03 | 42.93653 | 12.08488 | 25448 ft | 468 kts | 130° |
| 2026-04-30 12:03 | 42.89741 | 12.14993 | 24304 ft | 420 kts | 130° |
| 2026-04-30 12:03 | 42.87969 | 12.17936 | 23783 ft | 401 kts | 130° |
| 2026-04-30 12:04 | 42.86231 | 12.20816 | 23224 ft | 386 kts | 130° |
| 2026-04-30 12:04 | 42.84517 | 12.23654 | 22707 ft | 382 kts | 130° |
| 2026-04-30 12:04 | 42.82824 | 12.26453 | 22201 ft | 383 kts | 130° |
| 2026-04-30 12:04 | 42.81143 | 12.29214 | 21696 ft | 383 kts | 132° |
| 2026-04-30 12:05 | 42.79199 | 12.31638 | 21188 ft | 378 kts | 146° |
| 2026-04-30 12:05 | 42.76995 | 12.33519 | 20698 ft | 371 kts | 152° |
| 2026-04-30 12:05 | 42.74763 | 12.35273 | 20201 ft | 368 kts | 152° |
| 2026-04-30 12:05 | 42.72566 | 12.37032 | 19722 ft | 365 kts | 151° |
| 2026-04-30 12:06 | 42.70393 | 12.38782 | 19242 ft | 361 kts | 151° |
| 2026-04-30 12:06 | 42.68234 | 12.40503 | 18766 ft | 357 kts | 151° |
| 2026-04-30 12:06 | 42.66095 | 12.42198 | 18274 ft | 354 kts | 151° |
| 2026-04-30 12:06 | 42.63984 | 12.43878 | 17782 ft | 349 kts | 151° |
| 2026-04-30 12:07 | 42.61895 | 12.45543 | 17328 ft | 347 kts | 151° |
| 2026-04-30 12:07 | 42.59816 | 12.47198 | 16870 ft | 346 kts | 151° |
| 2026-04-30 12:07 | 42.58439 | 12.48290 | 16564 ft | 346 kts | 151° |
| 2026-04-30 12:07 | 42.56364 | 12.49936 | 16112 ft | 345 kts | 151° |
| 2026-04-30 12:08 | 42.54295 | 12.51578 | 15657 ft | 343 kts | 151° |
| 2026-04-30 12:08 | 42.52249 | 12.53201 | 15199 ft | 339 kts | 151° |
| 2026-04-30 12:08 | 42.50219 | 12.54808 | 14764 ft | 337 kts | 151° |
| 2026-04-30 12:08 | 42.48204 | 12.56402 | 14320 ft | 334 kts | 150° |
| 2026-04-30 12:09 | 42.46204 | 12.57982 | 13882 ft | 332 kts | 150° |
| 2026-04-30 12:09 | 42.43578 | 12.60058 | 13274 ft | 327 kts | 150° |
| 2026-04-30 12:09 | 42.42254 | 12.61091 | 12988 ft | 323 kts | 152° |
| 2026-04-30 12:09 | 42.40182 | 12.62178 | 12557 ft | 317 kts | 167° |
| 2026-04-30 12:10 | 42.38019 | 12.62574 | 12143 ft | 312 kts | 181° |
| 2026-04-30 12:10 | 42.35878 | 12.62319 | 11737 ft | 307 kts | 192° |
| 2026-04-30 12:10 | 42.33804 | 12.61836 | 11337 ft | 305 kts | 192° |
| 2026-04-30 12:10 | 42.31719 | 12.61380 | 10938 ft | 304 kts | 191° |
| 2026-04-30 12:11 | 42.29658 | 12.60943 | 10542 ft | 292 kts | 191° |
| 2026-04-30 12:11 | 42.27701 | 12.60521 | 10169 ft | 278 kts | 191° |
| 2026-04-30 12:11 | 42.25822 | 12.60107 | 9789 ft | 270 kts | 191° |
| 2026-04-30 12:11 | 42.24003 | 12.59492 | 9420 ft | 271 kts | 202° |
| 2026-04-30 12:12 | 42.22243 | 12.58581 | 9055 ft | 272 kts | 202° |
| 2026-04-30 12:12 | 42.20477 | 12.57702 | 8698 ft | 268 kts | 201° |
| 2026-04-30 12:12 | 42.18728 | 12.56850 | 8348 ft | 267 kts | 201° |
| 2026-04-30 12:12 | 42.16986 | 12.55991 | 7999 ft | 267 kts | 201° |
| 2026-04-30 12:13 | 42.15249 | 12.55124 | 7641 ft | 264 kts | 201° |
| 2026-04-30 12:13 | 42.13556 | 12.54288 | 7306 ft | 254 kts | 201° |
| 2026-04-30 12:13 | 42.11924 | 12.53483 | 6976 ft | 245 kts | 201° |
| 2026-04-30 12:13 | 42.10358 | 12.52707 | 6646 ft | 233 kts | 201° |
| 2026-04-30 12:14 | 42.08846 | 12.51961 | 6270 ft | 232 kts | 201° |
| 2026-04-30 12:14 | 42.07317 | 12.51206 | 5934 ft | 234 kts | 200° |
| 2026-04-30 12:14 | 42.05786 | 12.50453 | 5628 ft | 234 kts | 200° |
| 2026-04-30 12:14 | 42.04263 | 12.49702 | 5318 ft | 232 kts | 200° |
| 2026-04-30 12:15 | 42.02746 | 12.48954 | 5013 ft | 232 kts | 200° |
| 2026-04-30 12:15 | 42.01265 | 12.48224 | 4740 ft | 218 kts | 200° |
| 2026-04-30 12:15 | 41.99903 | 12.47554 | 4458 ft | 201 kts | 200° |
| 2026-04-30 12:15 | 41.98571 | 12.47194 | 4178 ft | 194 kts | 180° |
| 2026-04-30 12:16 | 41.97249 | 12.47513 | 3920 ft | 194 kts | 159° |
| 2026-04-30 12:16 | 41.96047 | 12.48324 | 3670 ft | 194 kts | 150° |
| 2026-04-30 12:16 | 41.94866 | 12.49156 | 3424 ft | 195 kts | 152° |
| 2026-04-30 12:16 | 41.93661 | 12.49979 | 3186 ft | 193 kts | 152° |
| 2026-04-30 12:17 | 41.91315 | 12.51612 | 2727 ft | 169 kts | 152° |
| 2026-04-30 12:17 | 41.90360 | 12.52259 | 2490 ft | 144 kts | 151° |
| 2026-04-30 12:17 | 41.89502 | 12.52865 | 2290 ft | 135 kts | 152° |
| 2026-04-30 12:18 | 41.88687 | 12.53429 | 2121 ft | 130 kts | 152° |
| 2026-04-30 12:18 | 41.87879 | 12.53990 | 1951 ft | 132 kts | 152° |
| 2026-04-30 12:18 | 41.87054 | 12.54558 | 1776 ft | 134 kts | 152° |
| 2026-04-30 12:18 | 41.86226 | 12.55130 | 1597 ft | 134 kts | 152° |
| 2026-04-30 12:19 | 41.85395 | 12.55709 | 1419 ft | 136 kts | 153° |
| 2026-04-30 12:19 | 41.84553 | 12.56293 | 1238 ft | 136 kts | 154° |
| 2026-04-30 12:19 | 41.83720 | 12.56869 | 1061 ft | 133 kts | 155° |
| 2026-04-30 12:19 | 41.82885 | 12.57422 | 836 ft | 134 kts | 156° |
| 2026-04-30 12:20 | 41.82081 | 12.58012 | 682 ft | 131 kts | 156° |
| 2026-04-30 12:20 | 41.81277 | 12.58568 | 510 ft | 128 kts | 156° |
| 2026-04-30 12:20 | 41.80517 | 12.59090 | 389 ft | 116 kts | 158° |
| 2026-04-30 12:20 | 41.79877 | 12.59521 | 391 ft | 92 kts | 153° |
| 2026-04-30 12:21 | 41.79488 | 12.59788 | 398 ft | 49 kts | 152° |
| 2026-04-30 12:21 | 41.79252 | 12.59949 | 406 ft | 31 kts | 153° |
| 2026-04-30 12:21 | 41.79095 | 12.60050 | 408 ft | 13 kts | 164° |
| 2026-04-30 12:21 | 41.79027 | 12.59964 | 395 ft | 10 kts | 244° |
| 2026-04-30 12:22 | 41.79020 | 12.59939 | 394 ft | 0 kts | 257° |
| 2026-04-30 12:22 | 41.79034 | 12.59912 | 393 ft | 11 kts | 318° |
| 2026-04-30 12:23 | 41.79140 | 12.59831 | 393 ft | 20 kts | 333° |
| 2026-04-30 12:23 | 41.79268 | 12.59741 | 392 ft | 21 kts | 332° |
| 2026-04-30 12:23 | 41.79404 | 12.59646 | 392 ft | 23 kts | 332° |
| 2026-04-30 12:23 | 41.79546 | 12.59551 | 391 ft | 24 kts | 334° |
| 2026-04-30 12:24 | 41.79693 | 12.59447 | 391 ft | 24 kts | 332° |
| 2026-04-30 12:24 | 41.79804 | 12.59347 | 391 ft | 15 kts | 272° |
| 2026-04-30 12:24 | 41.79720 | 12.59298 | 391 ft | 14 kts | 184° |
| 2026-04-30 12:24 | 41.79650 | 12.59219 | 391 ft | 9 kts | 225° |
| 2026-04-30 12:25 | 41.79632 | 12.59172 | 391 ft | 6 kts | 306° |
| 2026-04-30 12:25 | 41.79665 | 12.59134 | 391 ft | 0 kts | 323° |